createdAt,value
2018-06-01T07:50:55.678Z,2.33
2018-06-01T07:53:23.138Z,2.65
2018-06-01T07:55:50.602Z,2.97
2018-06-01T07:58:19.270Z,3.25
2018-06-01T08:00:46.722Z,3.08
2018-06-01T08:03:14.179Z,3.78
2018-06-01T08:05:41.763Z,3.65
2018-06-01T08:08:09.211Z,3.58
2018-06-01T08:10:36.660Z,3.67
2018-06-01T08:13:05.358Z,3.60
2018-06-01T08:15:32.809Z,3.95
2018-06-01T08:18:00.264Z,3.67
2018-06-01T08:20:27.847Z,3.22
2018-06-01T08:22:55.294Z,3.65
2018-06-01T08:25:22.738Z,3.40
2018-06-01T08:27:50.946Z,3.40
2018-06-01T08:30:18.395Z,3.50
2018-06-01T08:32:45.842Z,3.33
2018-06-01T08:35:14.676Z,3.50
2018-06-01T08:37:43.422Z,3.50
2018-06-01T08:40:10.875Z,3.58
2018-06-01T08:42:38.643Z,3.67
2018-06-01T08:45:06.094Z,3.03
2018-06-01T08:47:33.535Z,2.90
2018-06-01T08:50:01.426Z,2.70
2018-06-01T08:52:28.989Z,2.80
2018-06-01T08:54:56.435Z,2.85
2018-06-01T08:57:24.851Z,2.40
2018-06-01T08:59:52.396Z,2.80
2018-06-01T09:02:19.836Z,2.42
2018-06-01T09:04:47.522Z,2.53
2018-06-01T09:07:14.972Z,2.45
2018-06-01T09:09:42.426Z,2.55
2018-06-01T09:12:10.193Z,2.67
2018-06-01T09:14:37.630Z,2.35
2018-06-01T09:17:05.091Z,2.22
2018-06-01T09:19:33.165Z,2.30
2018-06-01T09:22:00.615Z,2.42
2018-06-01T09:24:28.084Z,2.05
2018-06-01T09:26:55.850Z,2.28
2018-06-01T09:29:23.300Z,2.33
2018-06-01T09:31:50.752Z,2.30
2018-06-01T09:34:18.372Z,1.95
2018-06-01T09:36:45.795Z,2.47
2018-06-01T09:39:13.255Z,2.40
2018-06-01T09:41:41.209Z,2.30
2018-06-01T09:44:08.766Z,2.45
2018-06-01T09:46:36.237Z,2.10
2018-06-01T09:49:03.892Z,2.53
2018-06-01T09:51:31.340Z,2.30
2018-06-01T09:53:59.426Z,2.62
2018-06-01T09:56:26.981Z,2.30
2018-06-01T09:58:54.425Z,2.33
2018-06-01T10:01:28.139Z,2.55
2018-06-01T10:03:55.585Z,2.40
2018-06-01T10:06:23.058Z,2.20
2018-06-01T10:08:52.671Z,1.95
2018-06-01T10:11:20.124Z,2.35
2018-06-01T10:13:48.333Z,2.55
2018-06-01T10:16:16.983Z,2.33
2018-06-01T10:18:44.463Z,2.33
2018-06-01T10:21:11.990Z,2.40
2018-06-01T10:23:39.570Z,2.25
2018-06-01T10:26:07.023Z,2.85
2018-06-01T10:28:34.463Z,2.80
2018-06-01T10:31:02.147Z,2.67
2018-06-01T10:33:29.692Z,2.50
2018-06-01T10:35:57.163Z,2.60
2018-06-01T10:38:24.657Z,2.53
2018-06-01T10:40:52.920Z,2.75
2018-06-01T10:43:20.455Z,2.58
2018-06-01T10:45:48.011Z,2.40
2018-06-01T10:48:15.507Z,2.35
2018-06-01T10:50:43.724Z,2.40
2018-06-01T10:53:12.251Z,2.17
2018-06-01T10:55:39.708Z,2.33
2018-06-01T10:58:07.155Z,2.65
2018-06-01T11:00:34.921Z,2.42
2018-06-01T11:03:02.372Z,2.60
2018-06-01T11:05:29.867Z,2.58
2018-06-01T11:08:00.455Z,2.72
2018-06-01T11:10:28.268Z,2.80
2018-06-01T11:12:56.502Z,3.00
2018-06-01T11:15:24.361Z,3.25
2018-06-01T11:17:51.809Z,3.70
2018-06-01T11:20:19.257Z,3.40
2018-06-01T11:22:47.053Z,3.67
2018-06-01T11:25:14.502Z,3.80
2018-06-01T11:27:42.019Z,4.05
2018-06-01T11:30:10.360Z,4.15
2018-06-01T11:32:37.796Z,4.60
2018-06-01T11:35:05.262Z,4.07
2018-06-01T11:37:32.975Z,4.65
2018-06-01T11:40:00.427Z,5.47
2018-06-01T11:42:27.935Z,5.93
2018-06-01T11:44:55.463Z,6.10
2018-06-01T11:47:22.922Z,5.65
2018-06-01T11:49:50.387Z,5.60
2018-06-01T11:52:18.759Z,5.95
2018-06-01T11:54:46.257Z,5.53
2018-06-01T11:57:13.707Z,5.60
2018-06-01T11:59:41.983Z,5.45
2018-06-01T12:02:09.428Z,5.65
2018-06-01T12:04:36.888Z,5.07
2018-06-01T12:07:04.564Z,5.75
2018-06-01T12:09:33.758Z,4.80
2018-06-01T12:12:01.217Z,4.97
2018-06-01T12:14:28.719Z,5.20
2018-06-01T12:16:56.185Z,5.18
2018-06-01T12:19:23.738Z,5.00
2018-06-01T12:21:51.587Z,4.80
2018-06-01T12:24:19.090Z,4.70
2018-06-01T12:26:46.536Z,4.32
2018-06-01T12:29:14.245Z,4.40
2018-06-01T12:31:41.635Z,4.78
2018-06-01T12:34:09.873Z,4.45
2018-06-01T12:36:38.248Z,4.03
2018-06-01T12:39:05.689Z,4.55
2018-06-01T12:41:33.179Z,4.15
2018-06-01T12:44:00.695Z,4.10
2018-06-01T12:46:28.139Z,3.72
2018-06-01T12:48:55.638Z,4.28
2018-06-01T12:51:23.309Z,3.87
2018-06-01T12:53:50.872Z,3.60
2018-06-01T12:56:18.311Z,3.05
2018-06-01T12:58:46.087Z,3.53
2018-06-01T13:01:13.539Z,3.28
2018-06-01T13:03:40.988Z,3.03
2018-06-01T13:06:08.766Z,2.90
2018-06-01T13:08:38.887Z,3.60
2018-06-01T13:11:06.345Z,3.72
2018-06-01T13:13:33.903Z,2.97
2018-06-01T13:16:01.378Z,2.97
2018-06-01T13:18:28.919Z,3.60
2018-06-01T13:20:56.595Z,3.10
2018-06-01T13:23:24.030Z,3.20
2018-06-01T13:25:51.471Z,3.17
2018-06-01T13:28:19.525Z,3.08
2018-06-01T13:30:46.984Z,3.25
2018-06-01T13:33:14.487Z,3.05
2018-06-01T13:35:42.256Z,3.12
2018-06-01T13:38:09.697Z,3.17
2018-06-01T13:40:37.161Z,3.12
2018-06-01T13:43:05.142Z,2.80
2018-06-01T13:45:32.603Z,2.97
2018-06-01T13:48:00.060Z,3.58
2018-06-01T13:50:28.232Z,3.05
2018-06-01T13:52:55.783Z,2.62
2018-06-01T13:55:23.246Z,3.33
2018-06-01T13:57:51.009Z,2.97
2018-06-01T14:00:18.459Z,3.30
2018-06-01T14:02:45.919Z,3.17
2018-06-01T14:05:13.521Z,3.15
2018-06-01T14:07:43.204Z,3.05
2018-06-01T14:10:10.861Z,3.08
2018-06-01T14:12:38.423Z,2.87
2018-06-01T14:15:05.866Z,2.75
2018-06-01T14:17:33.321Z,2.97
2018-06-01T14:20:00.893Z,2.85
2018-06-01T14:22:28.343Z,3.50
2018-06-01T14:24:55.799Z,2.83
2018-06-01T14:27:23.588Z,3.17
2018-06-01T14:29:51.047Z,3.00
2018-06-01T14:32:19.267Z,2.83
2018-06-01T14:34:47.004Z,2.87
2018-06-01T14:37:15.222Z,2.78
2018-06-01T14:39:42.671Z,2.62
2018-06-01T14:42:10.362Z,2.90
2018-06-01T14:44:37.807Z,2.80
2018-06-01T14:47:05.376Z,2.80
2018-06-01T14:49:33.474Z,2.70
2018-06-01T14:52:00.921Z,2.75
2018-06-01T14:54:28.397Z,2.90
2018-06-01T14:56:58.486Z,2.80
2018-06-01T14:59:25.944Z,2.55
2018-06-01T15:01:53.394Z,2.40
2018-06-01T15:04:21.083Z,2.65
2018-06-01T15:06:48.634Z,2.40
2018-06-01T15:09:17.600Z,2.72
2018-06-01T15:11:45.486Z,2.83
2018-06-01T15:14:12.936Z,2.65
2018-06-01T15:16:40.407Z,2.80
2018-06-01T15:19:08.045Z,3.00
2018-06-01T15:21:35.492Z,2.97
2018-06-01T15:24:02.963Z,2.33
2018-06-01T15:26:30.735Z,2.65
2018-06-01T15:28:58.194Z,2.42
2018-06-01T15:31:25.652Z,2.50
2018-06-01T15:33:53.212Z,2.50
2018-06-01T15:36:20.603Z,2.85
2018-06-01T15:38:48.057Z,2.42
2018-06-01T15:41:15.604Z,2.33
2018-06-01T15:43:43.064Z,2.40
2018-06-01T15:46:11.343Z,2.50
2018-06-01T15:48:39.509Z,2.42
2018-06-01T15:51:06.966Z,2.58
2018-06-01T15:53:34.409Z,2.35
2018-06-01T15:56:02.092Z,2.75
2018-06-01T15:58:29.572Z,2.55
2018-06-01T16:00:57.007Z,2.83
2018-06-01T16:03:24.707Z,2.42
2018-06-01T16:05:52.938Z,2.60
2018-06-01T16:08:21.781Z,2.22
2018-06-01T16:10:49.295Z,2.40
2018-06-01T16:13:16.991Z,2.47
2018-06-01T16:15:45.229Z,2.30
2018-06-01T16:18:12.740Z,2.28
2018-06-01T16:20:40.931Z,2.10
2018-06-01T16:23:08.382Z,2.45
2018-06-01T16:25:36.735Z,2.70
2018-06-01T16:28:04.948Z,2.40
2018-06-01T16:30:32.402Z,2.33
2018-06-01T16:32:59.892Z,2.15
2018-06-01T16:35:27.347Z,2.20
2018-06-01T16:37:54.806Z,2.42
2018-06-01T16:40:22.295Z,2.55
2018-06-01T16:42:50.527Z,2.40
2018-06-01T16:45:18.001Z,2.10
2018-06-01T16:47:45.963Z,2.35
2018-06-01T16:50:13.420Z,2.40
2018-06-01T16:52:40.871Z,2.20
2018-06-01T16:55:08.886Z,2.12
2018-06-01T16:57:36.332Z,2.30
2018-06-01T17:00:03.789Z,2.10
2018-06-01T17:02:31.636Z,1.92
2018-06-01T17:04:59.082Z,1.98
2018-06-01T17:07:29.281Z,2.10
2018-06-01T17:09:57.060Z,2.30
2018-06-01T17:12:24.550Z,2.10
2018-06-01T17:14:52.164Z,2.22
2018-06-01T17:17:19.980Z,1.90
2018-06-01T17:19:47.540Z,1.80
2018-06-01T17:22:14.986Z,1.98
2018-06-01T17:24:42.855Z,2.28
2018-06-01T17:27:11.076Z,2.10
2018-06-01T17:29:38.531Z,1.90
2018-06-01T17:32:06.270Z,2.30
2018-06-01T17:34:33.718Z,2.10
2018-06-01T17:37:01.261Z,2.00
2018-06-01T17:39:29.132Z,2.12
2018-06-01T17:41:56.580Z,2.00
2018-06-01T17:44:24.050Z,2.00
2018-06-01T17:46:51.967Z,2.17
2018-06-01T17:49:19.431Z,1.98
2018-06-01T17:51:46.870Z,2.53
2018-06-01T17:54:15.416Z,2.05
2018-06-01T17:56:42.890Z,2.30
2018-06-01T17:59:11.114Z,2.10
2018-06-01T18:01:38.627Z,2.50
2018-06-01T18:04:06.076Z,2.83
2018-06-01T18:06:33.527Z,2.20
2018-06-01T18:09:02.507Z,2.58
2018-06-01T18:11:29.958Z,2.37
2018-06-01T18:13:57.423Z,2.72
2018-06-01T18:16:25.186Z,2.92
2018-06-01T18:18:52.646Z,2.22
2018-06-01T18:21:20.096Z,2.62
2018-06-01T18:23:47.801Z,2.58
2018-06-01T18:26:16.011Z,2.53
2018-06-01T18:28:43.513Z,2.62
2018-06-01T18:31:11.784Z,2.87
2018-06-01T18:33:39.344Z,2.50
2018-06-01T18:36:06.806Z,2.17
2018-06-01T18:38:34.662Z,2.45
2018-06-01T18:41:02.121Z,2.53
2018-06-01T18:43:29.565Z,2.00
2018-06-01T18:45:57.065Z,2.50
2018-06-01T18:48:24.514Z,2.65
2018-06-01T18:50:51.967Z,2.70
2018-06-01T18:53:20.035Z,2.50
2018-06-01T18:55:47.491Z,2.50
2018-06-01T18:58:14.955Z,2.45
2018-06-01T19:00:43.738Z,2.37
2018-06-01T19:03:11.192Z,2.35
2018-06-01T19:05:38.659Z,2.78
2018-06-01T19:08:09.272Z,2.33
2018-06-01T19:10:36.748Z,2.20
2018-06-01T19:13:04.236Z,2.08
2018-06-01T19:15:32.381Z,2.25
2018-06-01T19:17:59.936Z,2.12
2018-06-01T19:20:27.388Z,2.35
2018-06-01T19:22:55.365Z,2.47
2018-06-01T19:25:22.920Z,2.10
2018-06-01T19:27:50.376Z,2.00
2018-06-01T19:30:18.859Z,2.35
2018-06-01T19:32:46.318Z,2.60
2018-06-01T19:35:13.758Z,2.30
2018-06-01T19:37:44.010Z,2.20
2018-06-01T19:40:11.488Z,2.03
2018-06-01T19:42:39.710Z,1.95
2018-06-01T19:45:07.208Z,2.08
2018-06-01T19:47:35.463Z,1.95
2018-06-01T19:50:03.951Z,2.08
2018-06-01T19:52:31.390Z,2.00
2018-06-01T19:54:58.842Z,2.00
2018-06-01T19:57:26.631Z,1.90
2018-06-01T19:59:54.882Z,2.10
2018-06-01T20:02:22.338Z,2.00
2018-06-01T20:04:50.235Z,2.30
2018-06-01T20:07:17.693Z,2.08
2018-06-01T20:09:46.791Z,1.80
2018-06-01T20:12:14.758Z,1.70
2018-06-01T20:14:43.034Z,1.77
2018-06-01T20:17:10.596Z,2.08
2018-06-01T20:19:38.147Z,2.10
2018-06-01T20:22:05.613Z,1.77
2018-06-01T20:24:33.064Z,2.35
2018-06-01T20:27:01.551Z,1.87
2018-06-01T20:29:29.005Z,2.10
2018-06-01T20:31:57.229Z,2.03
2018-06-01T20:34:28.119Z,1.90
2018-06-01T20:36:55.682Z,2.08
2018-06-01T20:39:23.237Z,2.05
2018-06-01T20:41:51.840Z,1.90
2018-06-01T20:44:19.295Z,1.87
2018-06-01T20:46:47.552Z,1.60
2018-06-01T20:49:15.531Z,1.92
2018-06-01T20:51:42.994Z,1.77
2018-06-01T20:54:10.444Z,1.75
2018-06-01T20:56:38.005Z,1.90
2018-06-01T20:59:05.463Z,1.75
2018-06-01T21:01:32.915Z,1.80
2018-06-01T21:04:00.772Z,2.15
2018-06-01T21:06:28.226Z,1.60
2018-06-01T21:08:59.290Z,1.80
2018-06-01T21:11:27.559Z,1.50
2018-06-01T21:13:55.023Z,1.62
2018-06-01T21:16:22.479Z,1.75
2018-06-01T21:18:49.951Z,2.00
2018-06-01T21:21:17.406Z,1.98
2018-06-01T21:23:44.868Z,1.75
2018-06-01T21:26:13.028Z,1.80
2018-06-01T21:28:40.483Z,1.92
2018-06-01T21:31:07.940Z,1.48
2018-06-01T21:33:35.598Z,1.55
2018-06-01T21:36:03.046Z,2.00
2018-06-01T21:38:30.523Z,1.85
2018-06-01T21:40:58.358Z,1.73
2018-06-01T21:43:25.803Z,2.00
2018-06-01T21:45:53.260Z,1.67
2018-06-01T21:48:21.275Z,1.70
2018-06-01T21:50:48.710Z,1.70
2018-06-01T21:53:16.160Z,1.85
2018-06-01T21:55:43.648Z,1.85
2018-06-01T21:58:11.194Z,1.80
2018-06-01T22:00:38.654Z,1.80
2018-06-01T22:03:07.346Z,1.85
2018-06-01T22:05:34.794Z,1.70
2018-06-01T22:08:04.106Z,1.80
2018-06-01T22:10:32.070Z,1.62
2018-06-01T22:12:59.534Z,1.90
2018-06-01T22:15:27.100Z,1.73
2018-06-01T22:17:54.973Z,1.70
2018-06-01T22:20:22.407Z,1.80
2018-06-01T22:22:49.867Z,2.12
2018-06-01T22:25:18.474Z,1.70
2018-06-01T22:27:45.919Z,1.40
2018-06-01T22:30:13.374Z,1.83
2018-06-01T22:32:40.871Z,1.75
2018-06-01T22:35:09.093Z,1.50
2018-06-01T22:37:36.541Z,1.87
2018-06-01T22:40:04.043Z,1.80
2018-06-01T22:42:31.491Z,1.70
2018-06-01T22:44:58.939Z,1.40
2018-06-01T22:47:27.116Z,1.85
2018-06-01T22:49:54.575Z,1.52
2018-06-01T22:52:22.035Z,1.87
2018-06-01T22:54:49.696Z,1.80
2018-06-01T22:57:17.135Z,1.80
2018-06-01T22:59:44.582Z,1.70
2018-06-01T23:02:12.079Z,1.67
2018-06-01T23:04:39.620Z,1.83
2018-06-01T23:07:07.078Z,1.80
2018-06-01T23:09:35.576Z,1.83
2018-06-01T23:12:03.023Z,2.00
2018-06-01T23:14:30.478Z,1.95
2018-06-01T23:16:58.035Z,1.70
2018-06-01T23:19:25.500Z,1.95
2018-06-01T23:21:52.948Z,1.55
2018-06-01T23:24:20.463Z,1.80
2018-06-01T23:26:48.239Z,1.87
2018-06-01T23:29:15.701Z,2.20
2018-06-01T23:31:44.482Z,1.95
2018-06-01T23:34:11.919Z,2.00
2018-06-01T23:36:40.150Z,1.70
2018-06-01T23:39:08.131Z,1.87
2018-06-01T23:41:35.576Z,2.08
2018-06-01T23:44:03.042Z,2.30
2018-06-01T23:46:30.907Z,1.90
2018-06-01T23:48:58.356Z,2.05
2018-06-01T23:51:25.819Z,2.12
2018-06-01T23:53:53.491Z,1.83
2018-06-01T23:56:20.947Z,2.00
2018-06-01T23:58:48.396Z,1.83
